sensor_id;sensor_type;location;lat;lon;timestamp;pressure;altitude;pressure_sealevel;temperature;humidity
12801;BME280;6464;42.494;27.470;2022-09-04T04:06:09;101848.53;;;18.28;100.00
12801;BME280;6464;42.494;27.470;2022-09-04T04:09:57;101976.41;;;19.19;100.00
12801;BME280;6464;42.494;27.470;2022-09-04T04:16:44;101837.19;;;18.46;100.00
12801;BME280;6464;42.494;27.470;2022-09-04T04:20:42;101829.19;;;18.46;100.00
12801;BME280;6464;42.494;27.470;2022-09-04T04:26:54;101862.03;;;18.49;100.00
12801;BME280;6464;42.494;27.470;2022-09-04T04:36:47;101854.78;;;18.53;100.00
12801;BME280;6464;42.494;27.470;2022-09-04T04:40:46;101823.34;;;18.35;100.00
12801;BME280;6464;42.494;27.470;2022-09-04T04:55:08;101953.56;;;19.36;100.00
12801;BME280;6464;42.494;27.470;2022-09-04T04:57:45;101930.50;;;19.32;100.00
12801;BME280;6464;42.494;27.470;2022-09-04T05:00:20;101960.56;;;19.65;100.00
12801;BME280;6464;42.494;27.470;2022-09-04T05:03:00;101923.19;;;19.37;100.00
12801;BME280;6464;42.494;27.470;2022-09-04T05:05:48;101858.16;;;19.11;100.00
12801;BME280;6464;42.494;27.470;2022-09-04T05:08:32;101909.03;;;19.33;100.00
12801;BME280;6464;42.494;27.470;2022-09-04T05:11:09;101882.69;;;19.22;100.00
12801;BME280;6464;42.494;27.470;2022-09-04T05:13:45;101935.22;;;19.50;100.00
12801;BME280;6464;42.494;27.470;2022-09-04T05:16:24;101929.25;;;19.42;100.00
12801;BME280;6464;42.494;27.470;2022-09-04T05:18:58;102047.22;;;20.11;100.00
12801;BME280;6464;42.494;27.470;2022-09-04T05:21:33;102007.94;;;19.86;100.00
12801;BME280;6464;42.494;27.470;2022-09-04T05:24:08;101894.16;;;19.26;100.00
12801;BME280;6464;42.494;27.470;2022-09-04T05:29:46;101934.16;;;19.54;100.00
12801;BME280;6464;42.494;27.470;2022-09-04T05:35:57;101969.94;;;19.51;100.00
12801;BME280;6464;42.494;27.470;2022-09-04T05:38:37;102006.22;;;19.85;100.00
12801;BME280;6464;42.494;27.470;2022-09-04T05:41:20;101929.25;;;19.42;100.00
12801;BME280;6464;42.494;27.470;2022-09-04T05:43:58;101912.59;;;19.34;100.00
12801;BME280;6464;42.494;27.470;2022-09-04T05:46:42;101960.78;;;19.57;100.00
12801;BME280;6464;42.494;27.470;2022-09-04T05:49:19;102024.22;;;20.05;100.00
12801;BME280;6464;42.494;27.470;2022-09-04T05:52:24;102026.50;;;19.92;100.00
12801;BME280;6464;42.494;27.470;2022-09-04T05:55:19;102076.84;;;20.29;100.00
12801;BME280;6464;42.494;27.470;2022-09-04T05:58:24;102090.63;;;20.44;100.00
12801;BME280;6464;42.494;27.470;2022-09-04T06:01:02;102047.91;;;20.16;100.00
12801;BME280;6464;42.494;27.470;2022-09-04T06:03:53;102054.53;;;20.06;100.00
12801;BME280;6464;42.494;27.470;2022-09-04T06:06:32;102038.09;;;19.91;100.00
12801;BME280;6464;42.494;27.470;2022-09-04T06:09:27;102131.50;;;20.50;100.00
12801;BME280;6464;42.494;27.470;2022-09-04T06:12:17;102001.47;;;19.68;100.00
12801;BME280;6464;42.494;27.470;2022-09-04T06:14:58;102088.75;;;20.22;100.00
12801;BME280;6464;42.494;27.470;2022-09-04T06:17:42;102089.47;;;20.27;100.00
12801;BME280;6464;42.494;27.470;2022-09-04T06:20:27;102156.88;;;20.89;100.00
12801;BME280;6464;42.494;27.470;2022-09-04T06:23:10;102091.59;;;20.66;100.00
12801;BME280;6464;42.494;27.470;2022-09-04T06:26:05;102183.38;;;21.42;100.00
12801;BME280;6464;42.494;27.470;2022-09-04T06:29:04;102119.44;;;21.08;100.00
12801;BME280;6464;42.494;27.470;2022-09-04T06:32:06;102135.91;;;21.20;100.00
12801;BME280;6464;42.494;27.470;2022-09-04T06:37:36;102134.91;;;21.01;100.00
12801;BME280;6464;42.494;27.470;2022-09-04T06:40:19;102163.44;;;21.25;100.00
12801;BME280;6464;42.494;27.470;2022-09-04T06:43:01;102131.06;;;21.08;100.00
12801;BME280;6464;42.494;27.470;2022-09-04T06:45:42;102153.53;;;21.27;100.00
12801;BME280;6464;42.494;27.470;2022-09-04T06:48:23;102231.00;;;21.80;100.00
12801;BME280;6464;42.494;27.470;2022-09-04T06:51:00;102238.56;;;21.93;100.00
12801;BME280;6464;42.494;27.470;2022-09-04T06:53:45;102184.19;;;21.44;100.00
12801;BME280;6464;42.494;27.470;2022-09-04T06:56:27;102245.25;;;21.83;100.00
12801;BME280;6464;42.494;27.470;2022-09-04T06:59:16;102212.59;;;21.49;100.00
12801;BME280;6464;42.494;27.470;2022-09-04T07:01:54;102245.53;;;21.76;100.00
12801;BME280;6464;42.494;27.470;2022-09-04T07:04:34;102247.94;;;21.83;100.00
12801;BME280;6464;42.494;27.470;2022-09-04T07:07:11;102221.41;;;21.53;100.00
12801;BME280;6464;42.494;27.470;2022-09-04T07:09:46;102192.94;;;21.49;100.00
12801;BME280;6464;42.494;27.470;2022-09-04T07:12:37;102215.97;;;21.76;100.00
12801;BME280;6464;42.494;27.470;2022-09-04T07:15:35;102218.13;;;21.89;100.00
12801;BME280;6464;42.494;27.470;2022-09-04T07:18:16;102215.19;;;21.95;100.00
12801;BME280;6464;42.494;27.470;2022-09-04T07:20:55;102206.59;;;21.87;100.00
12801;BME280;6464;42.494;27.470;2022-09-04T07:23:33;102228.44;;;22.21;100.00
12801;BME280;6464;42.494;27.470;2022-09-04T07:26:18;102215.66;;;22.26;100.00
12801;BME280;6464;42.494;27.470;2022-09-04T07:29:24;102210.41;;;22.23;100.00
12801;BME280;6464;42.494;27.470;2022-09-04T07:32:00;102229.63;;;22.55;100.00
12801;BME280;6464;42.494;27.470;2022-09-04T07:34:36;102225.44;;;22.48;100.00
12801;BME280;6464;42.494;27.470;2022-09-04T07:37:12;102233.72;;;22.64;100.00
12801;BME280;6464;42.494;27.470;2022-09-04T07:39:59;102231.13;;;22.81;100.00
12801;BME280;6464;42.494;27.470;2022-09-04T07:42:38;102228.19;;;22.87;100.00
12801;BME280;6464;42.494;27.470;2022-09-04T07:45:14;102251.06;;;23.16;100.00
12801;BME280;6464;42.494;27.470;2022-09-04T07:47:54;102211.50;;;23.18;100.00
12801;BME280;6464;42.494;27.470;2022-09-04T07:50:24;102274.63;;;23.87;100.00
12801;BME280;6464;42.494;27.470;2022-09-04T07:53:12;102239.25;;;23.75;100.00
12801;BME280;6464;42.494;27.470;2022-09-04T07:55:46;102283.19;;;23.95;100.00
12801;BME280;6464;42.494;27.470;2022-09-04T08:01:35;102322.72;;;25.17;100.00
12801;BME280;6464;42.494;27.470;2022-09-04T08:07:14;102326.00;;;25.55;100.00
12801;BME280;6464;42.494;27.470;2022-09-04T08:10:05;102293.31;;;25.60;100.00
12801;BME280;6464;42.494;27.470;2022-09-04T08:13:05;102324.19;;;26.03;100.00
12801;BME280;6464;42.494;27.470;2022-09-04T08:15:41;102339.69;;;25.68;100.00
12801;BME280;6464;42.494;27.470;2022-09-04T08:18:18;102335.44;;;26.11;100.00
12801;BME280;6464;42.494;27.470;2022-09-04T08:20:56;102285.44;;;25.71;100.00
12801;BME280;6464;42.494;27.470;2022-09-04T08:23:42;102248.44;;;25.42;100.00
12801;BME280;6464;42.494;27.470;2022-09-04T08:26:19;102328.88;;;26.61;100.00
12801;BME280;6464;42.494;27.470;2022-09-04T08:29:03;102317.66;;;26.37;100.00
12801;BME280;6464;42.494;27.470;2022-09-04T08:31:40;102293.09;;;26.10;100.00
12801;BME280;6464;42.494;27.470;2022-09-04T08:34:34;102267.88;;;25.64;100.00
12801;BME280;6464;42.494;27.470;2022-09-04T08:37:17;102273.81;;;26.17;100.00
12801;BME280;6464;42.494;27.470;2022-09-04T08:39:56;102245.31;;;26.11;100.00
12801;BME280;6464;42.494;27.470;2022-09-04T08:51:48;102247.88;;;24.53;100.00
12801;BME280;6464;42.494;27.470;2022-09-04T08:54:47;102239.38;;;24.60;100.00
12801;BME280;6464;42.494;27.470;2022-09-04T08:57:40;102184.28;;;25.13;100.00
12801;BME280;6464;42.494;27.470;2022-09-04T09:00:14;102248.50;;;24.58;100.00
12801;BME280;6464;42.494;27.470;2022-09-04T09:06:23;102277.91;;;26.54;100.00
12801;BME280;6464;42.494;27.470;2022-09-04T09:12:13;102225.75;;;25.76;100.00
12801;BME280;6464;42.494;27.470;2022-09-04T09:18:01;102229.94;;;25.81;100.00
12801;BME280;6464;42.494;27.470;2022-09-04T09:20:29;102280.19;;;24.87;100.00
12801;BME280;6464;42.494;27.470;2022-09-04T09:23:14;102222.63;;;25.68;100.00
12801;BME280;6464;42.494;27.470;2022-09-04T09:25:49;102228.22;;;26.98;100.00
12801;BME280;6464;42.494;27.470;2022-09-04T09:31:54;102336.81;;;28.60;100.00
12801;BME280;6464;42.494;27.470;2022-09-04T09:38:26;102368.06;;;31.79;100.00
12801;BME280;6464;42.494;27.470;2022-09-04T09:41:31;102329.50;;;30.71;100.00
12801;BME280;6464;42.494;27.470;2022-09-04T09:44:34;102368.78;;;32.46;100.00
12801;BME280;6464;42.494;27.470;2022-09-04T09:56:45;102313.34;;;29.61;100.00
12801;BME280;6464;42.494;27.470;2022-09-04T10:06:15;102296.75;;;29.40;100.00
12801;BME280;6464;42.494;27.470;2022-09-04T10:09:02;102305.16;;;29.11;100.00
12801;BME280;6464;42.494;27.470;2022-09-04T10:18:04;102287.88;;;29.62;100.00
12801;BME280;6464;42.494;27.470;2022-09-04T10:21:17;102322.47;;;31.02;100.00
12801;BME280;6464;42.494;27.470;2022-09-04T10:27:28;102315.03;;;31.04;100.00
12801;BME280;6464;42.494;27.470;2022-09-04T10:30:06;102307.13;;;31.46;100.00
12801;BME280;6464;42.494;27.470;2022-09-04T10:33:10;102330.25;;;31.18;100.00
12801;BME280;6464;42.494;27.470;2022-09-04T10:35:52;102276.66;;;29.54;100.00
12801;BME280;6464;42.494;27.470;2022-09-04T10:38:31;102272.28;;;30.01;100.00
12801;BME280;6464;42.494;27.470;2022-09-04T10:41:23;102292.81;;;30.05;100.00
12801;BME280;6464;42.494;27.470;2022-09-04T10:44:16;102257.84;;;29.87;100.00
12801;BME280;6464;42.494;27.470;2022-09-04T10:46:56;102282.47;;;29.86;100.00
12801;BME280;6464;42.494;27.470;2022-09-04T10:49:43;102278.66;;;29.02;100.00
12801;BME280;6464;42.494;27.470;2022-09-04T10:55:22;102352.34;;;31.82;100.00
12801;BME280;6464;42.494;27.470;2022-09-04T10:58:08;102400.22;;;33.76;100.00
12801;BME280;6464;42.494;27.470;2022-09-04T11:00:50;102275.03;;;29.88;100.00
12801;BME280;6464;42.494;27.470;2022-09-04T11:03:38;102325.69;;;30.96;100.00
12801;BME280;6464;42.494;27.470;2022-09-04T11:06:32;102291.88;;;29.19;100.00
12801;BME280;6464;42.494;27.470;2022-09-04T11:09:24;102279.53;;;29.03;100.00
12801;BME280;6464;42.494;27.470;2022-09-04T11:15:15;102328.78;;;30.21;100.00
12801;BME280;6464;42.494;27.470;2022-09-04T11:18:19;102293.50;;;28.84;100.00
12801;BME280;6464;42.494;27.470;2022-09-04T11:24:35;102356.34;;;32.74;100.00
12801;BME280;6464;42.494;27.470;2022-09-04T11:30:09;102369.53;;;32.69;100.00
12801;BME280;6464;42.494;27.470;2022-09-04T11:33:02;102325.06;;;31.82;100.00
12801;BME280;6464;42.494;27.470;2022-09-04T11:36:05;102291.13;;;29.67;100.00
12801;BME280;6464;42.494;27.470;2022-09-04T11:42:03;102266.59;;;28.28;100.00
12801;BME280;6464;42.494;27.470;2022-09-04T11:45:04;102264.88;;;28.27;100.00
12801;BME280;6464;42.494;27.470;2022-09-04T11:47:55;102272.78;;;30.06;100.00
12801;BME280;6464;42.494;27.470;2022-09-04T11:50:46;102330.66;;;31.47;100.00
12801;BME280;6464;42.494;27.470;2022-09-04T11:53:52;102376.97;;;33.61;100.00
12801;BME280;6464;42.494;27.470;2022-09-04T11:56:39;102347.50;;;31.74;100.00
12801;BME280;6464;42.494;27.470;2022-09-04T11:59:35;102312.47;;;30.56;100.00
12801;BME280;6464;42.494;27.470;2022-09-04T12:02:19;102309.28;;;31.97;100.00
12801;BME280;6464;42.494;27.470;2022-09-04T12:05:04;102259.03;;;32.20;100.00
12801;BME280;6464;42.494;27.470;2022-09-04T12:07:49;102273.22;;;31.82;100.00
12801;BME280;6464;42.494;27.470;2022-09-04T12:13:33;102380.13;;;35.50;100.00
12801;BME280;6464;42.494;27.470;2022-09-04T12:22:53;102345.41;;;34.26;100.00
12801;BME280;6464;42.494;27.470;2022-09-04T12:26:01;102336.09;;;33.79;100.00
12801;BME280;6464;42.494;27.470;2022-09-04T12:28:54;102336.91;;;34.39;100.00
12801;BME280;6464;42.494;27.470;2022-09-04T12:37:33;102359.47;;;35.09;100.00
12801;BME280;6464;42.494;27.470;2022-09-04T12:40:30;102305.56;;;33.23;100.00
12801;BME280;6464;42.494;27.470;2022-09-04T12:43:21;102333.59;;;34.55;100.00
12801;BME280;6464;42.494;27.470;2022-09-04T12:45:59;102291.53;;;32.23;100.00
12801;BME280;6464;42.494;27.470;2022-09-04T12:48:36;102285.09;;;31.81;100.00
12801;BME280;6464;42.494;27.470;2022-09-04T12:51:11;102263.09;;;30.61;100.00
12801;BME280;6464;42.494;27.470;2022-09-04T12:53:50;102250.91;;;30.42;100.00
12801;BME280;6464;42.494;27.470;2022-09-04T12:56:28;102254.59;;;30.30;100.00
12801;BME280;6464;42.494;27.470;2022-09-04T12:59:22;102267.09;;;31.35;100.00
12801;BME280;6464;42.494;27.470;2022-09-04T13:02:03;102292.53;;;31.79;100.00
12801;BME280;6464;42.494;27.470;2022-09-04T13:04:40;102255.97;;;30.36;100.00
12801;BME280;6464;42.494;27.470;2022-09-04T13:07:21;102171.56;;;28.55;100.00
12801;BME280;6464;42.494;27.470;2022-09-04T13:10:02;102214.56;;;28.49;100.00
12801;BME280;6464;42.494;27.470;2022-09-04T13:12:41;102171.47;;;27.52;100.00
12801;BME280;6464;42.494;27.470;2022-09-04T13:15:24;102200.66;;;27.61;100.00
12801;BME280;6464;42.494;27.470;2022-09-04T13:18:10;102189.94;;;27.99;100.00
12801;BME280;6464;42.494;27.470;2022-09-04T13:20:45;102229.84;;;29.01;100.00
12801;BME280;6464;42.494;27.470;2022-09-04T13:23:26;102230.44;;;28.67;100.00
12801;BME280;6464;42.494;27.470;2022-09-04T13:26:13;102158.84;;;28.05;100.00
12801;BME280;6464;42.494;27.470;2022-09-04T13:28:53;102236.03;;;28.52;100.00
12801;BME280;6464;42.494;27.470;2022-09-04T13:31:32;102231.06;;;28.71;100.00
12801;BME280;6464;42.494;27.470;2022-09-04T13:34:08;102180.44;;;28.19;100.00
12801;BME280;6464;42.494;27.470;2022-09-04T13:36:46;102214.41;;;28.25;100.00
12801;BME280;6464;42.494;27.470;2022-09-04T13:39:42;102194.53;;;28.11;100.00
12801;BME280;6464;42.494;27.470;2022-09-04T13:45:31;102190.84;;;28.00;100.00
12801;BME280;6464;42.494;27.470;2022-09-04T13:48:05;102199.16;;;28.49;100.00
12801;BME280;6464;42.494;27.470;2022-09-04T13:50:37;102171.31;;;27.40;100.00
12801;BME280;6464;42.494;27.470;2022-09-04T13:53:13;102193.25;;;28.30;100.00
12801;BME280;6464;42.494;27.470;2022-09-04T13:55:46;102147.22;;;28.15;100.00
12801;BME280;6464;42.494;27.470;2022-09-04T13:58:17;102204.41;;;28.12;100.00
12801;BME280;6464;42.494;27.470;2022-09-04T14:00:48;102162.75;;;28.77;100.00
12801;BME280;6464;42.494;27.470;2022-09-04T14:03:26;102228.53;;;28.93;100.00
12801;BME280;6464;42.494;27.470;2022-09-04T14:05:55;102207.78;;;29.18;100.00
12801;BME280;6464;42.494;27.470;2022-09-04T14:08:24;102227.00;;;29.15;100.00
12801;BME280;6464;42.494;27.470;2022-09-04T14:11:18;102072.88;;;26.86;100.00
12801;BME280;6464;42.494;27.470;2022-09-04T14:14:03;102139.25;;;27.47;100.00
12801;BME280;6464;42.494;27.470;2022-09-04T14:16:36;102202.50;;;27.87;100.00
12801;BME280;6464;42.494;27.470;2022-09-04T14:19:31;102190.00;;;28.37;100.00
12801;BME280;6464;42.494;27.470;2022-09-04T14:22:12;102167.25;;;28.40;100.00
12801;BME280;6464;42.494;27.470;2022-09-04T14:24:45;102244.75;;;28.69;100.00
12801;BME280;6464;42.494;27.470;2022-09-04T14:27:24;102154.63;;;27.74;100.00
12801;BME280;6464;42.494;27.470;2022-09-04T14:30:01;102166.13;;;27.50;100.00
12801;BME280;6464;42.494;27.470;2022-09-04T14:32:40;102190.34;;;27.12;100.00
12801;BME280;6464;42.494;27.470;2022-09-04T14:35:16;102117.31;;;26.69;100.00
12801;BME280;6464;42.494;27.470;2022-09-04T14:38:02;102162.91;;;26.75;100.00
12801;BME280;6464;42.494;27.470;2022-09-04T14:40:41;102138.25;;;27.75;100.00
12801;BME280;6464;42.494;27.470;2022-09-04T14:43:17;102202.25;;;27.78;100.00
12801;BME280;6464;42.494;27.470;2022-09-04T14:46:07;102204.91;;;27.92;100.00
12801;BME280;6464;42.494;27.470;2022-09-04T14:48:38;102194.00;;;27.25;100.00
12801;BME280;6464;42.494;27.470;2022-09-04T14:51:30;102179.28;;;27.29;100.00
12801;BME280;6464;42.494;27.470;2022-09-04T14:53:58;102168.06;;;27.21;100.00
12801;BME280;6464;42.494;27.470;2022-09-04T14:56:30;102207.00;;;27.74;100.00
12801;BME280;6464;42.494;27.470;2022-09-04T14:59:08;102133.84;;;26.06;100.00
12801;BME280;6464;42.494;27.470;2022-09-04T15:01:56;102145.94;;;27.00;100.00
12801;BME280;6464;42.494;27.470;2022-09-04T15:04:27;102149.53;;;27.01;100.00
12801;BME280;6464;42.494;27.470;2022-09-04T15:07:03;102136.03;;;26.72;100.00
12801;BME280;6464;42.494;27.470;2022-09-04T15:09:45;102155.88;;;26.14;100.00
12801;BME280;6464;42.494;27.470;2022-09-04T15:12:17;102194.59;;;27.16;100.00
12801;BME280;6464;42.494;27.470;2022-09-04T15:14:47;102188.13;;;27.19;100.00
12801;BME280;6464;42.494;27.470;2022-09-04T15:17:23;102114.94;;;26.34;100.00
12801;BME280;6464;42.494;27.470;2022-09-04T15:19:57;102127.94;;;26.44;100.00
12801;BME280;6464;42.494;27.470;2022-09-04T15:22:35;102173.16;;;26.84;100.00
12801;BME280;6464;42.494;27.470;2022-09-04T15:25:05;102118.75;;;26.46;100.00
12801;BME280;6464;42.494;27.470;2022-09-04T15:27:42;102194.88;;;26.69;100.00
12801;BME280;6464;42.494;27.470;2022-09-04T15:30:17;102107.06;;;25.57;100.00
12801;BME280;6464;42.494;27.470;2022-09-04T15:32:46;102168.34;;;25.09;100.00
12801;BME280;6464;42.494;27.470;2022-09-04T15:35:36;102166.22;;;24.82;100.00
12801;BME280;6464;42.494;27.470;2022-09-04T15:47:35;102117.09;;;23.57;100.00
12801;BME280;6464;42.494;27.470;2022-09-04T15:50:23;102119.47;;;23.46;100.00
12801;BME280;6464;42.494;27.470;2022-09-04T15:58:46;102095.66;;;23.20;100.00
12801;BME280;6464;42.494;27.470;2022-09-04T16:16:34;102083.06;;;23.03;100.00
12801;BME280;6464;42.494;27.470;2022-09-04T16:19:27;102112.69;;;23.20;100.00
12801;BME280;6464;42.494;27.470;2022-09-04T16:22:06;102087.28;;;22.90;100.00
12801;BME280;6464;42.494;27.470;2022-09-04T16:24:40;102021.19;;;22.65;100.00
12801;BME280;6464;42.494;27.470;2022-09-04T16:27:12;102141.63;;;23.34;100.00
12801;BME280;6464;42.494;27.470;2022-09-04T16:29:44;102087.56;;;23.02;100.00
12801;BME280;6464;42.494;27.470;2022-09-04T16:32:18;102073.94;;;22.87;100.00
12801;BME280;6464;42.494;27.470;2022-09-04T16:34:48;102142.09;;;23.06;100.00
12801;BME280;6464;42.494;27.470;2022-09-04T16:37:30;102130.84;;;22.98;100.00
12801;BME280;6464;42.494;27.470;2022-09-04T16:43:26;102140.63;;;22.80;100.00
12801;BME280;6464;42.494;27.470;2022-09-04T16:49:29;102107.44;;;22.42;100.00
12801;BME280;6464;42.494;27.470;2022-09-04T16:52:35;102076.19;;;22.20;100.00
12801;BME280;6464;42.494;27.470;2022-09-04T16:55:48;102121.97;;;22.38;100.00
12801;BME280;6464;42.494;27.470;2022-09-04T16:58:27;102061.00;;;21.99;100.00
12801;BME280;6464;42.494;27.470;2022-09-04T17:01:18;102147.28;;;22.52;100.00
12801;BME280;6464;42.494;27.470;2022-09-04T17:04:38;102101.31;;;22.19;100.00
12801;BME280;6464;42.494;27.470;2022-09-04T17:07:24;102159.06;;;22.50;100.00
12801;BME280;6464;42.494;27.470;2022-09-04T17:13:41;102139.03;;;22.37;100.00
12801;BME280;6464;42.494;27.470;2022-09-04T17:16:33;102123.28;;;22.29;100.00
12801;BME280;6464;42.494;27.470;2022-09-04T17:22:43;102104.69;;;22.24;100.00
12801;BME280;6464;42.494;27.470;2022-09-04T17:25:31;102091.69;;;22.14;100.00
12801;BME280;6464;42.494;27.470;2022-09-04T17:31:43;102105.78;;;22.19;100.00
12801;BME280;6464;42.494;27.470;2022-09-04T17:34:58;102079.78;;;21.99;100.00
12801;BME280;6464;42.494;27.470;2022-09-04T17:51:40;102074.31;;;21.81;100.00
12801;BME280;6464;42.494;27.470;2022-09-04T18:00:23;102145.22;;;21.98;100.00
12801;BME280;6464;42.494;27.470;2022-09-04T18:03:23;102111.91;;;21.81;100.00
12801;BME280;6464;42.494;27.470;2022-09-04T18:33:07;102097.72;;;21.37;100.00
12801;BME280;6464;42.494;27.470;2022-09-04T18:35:57;102177.09;;;21.85;100.00
12801;BME280;6464;42.494;27.470;2022-09-04T18:39:10;102139.25;;;21.49;100.00
12801;BME280;6464;42.494;27.470;2022-09-04T18:45:09;102142.50;;;21.57;100.00
12801;BME280;6464;42.494;27.470;2022-09-04T18:51:25;102175.53;;;21.79;100.00
12801;BME280;6464;42.494;27.470;2022-09-04T18:54:18;102112.34;;;21.28;100.00
12801;BME280;6464;42.494;27.470;2022-09-04T18:57:20;102182.50;;;21.63;100.00
12801;BME280;6464;42.494;27.470;2022-09-04T19:03:25;102146.88;;;21.38;100.00
12801;BME280;6464;42.494;27.470;2022-09-04T19:06:12;102124.94;;;21.04;100.00
12801;BME280;6464;42.494;27.470;2022-09-04T19:09:09;102094.53;;;20.82;100.00
12801;BME280;6464;42.494;27.470;2022-09-04T19:14:44;102087.72;;;20.73;100.00
12801;BME280;6464;42.494;27.470;2022-09-04T19:17:52;102020.59;;;20.29;100.00
12801;BME280;6464;42.494;27.470;2022-09-04T19:23:49;102086.00;;;20.49;100.00
12801;BME280;6464;42.494;27.470;2022-09-04T19:33:38;102158.53;;;20.68;100.00
12801;BME280;6464;42.494;27.470;2022-09-04T19:36:34;102062.97;;;19.95;100.00
12801;BME280;6464;42.494;27.470;2022-09-04T19:42:27;102063.81;;;19.97;100.00
12801;BME280;6464;42.494;27.470;2022-09-04T19:45:20;102092.91;;;20.06;100.00
12801;BME280;6464;42.494;27.470;2022-09-04T20:00:44;102158.81;;;20.10;100.00
12801;BME280;6464;42.494;27.470;2022-09-04T20:09:46;102079.34;;;19.61;100.00
12801;BME280;6464;42.494;27.470;2022-09-04T20:12:31;102110.16;;;19.72;100.00
12801;BME280;6464;42.494;27.470;2022-09-04T20:15:13;102023.81;;;19.14;100.00
12801;BME280;6464;42.494;27.470;2022-09-04T20:27:11;102180.63;;;19.99;100.00
12801;BME280;6464;42.494;27.470;2022-09-04T20:29:54;102180.63;;;19.99;100.00
12801;BME280;6464;42.494;27.470;2022-09-04T20:32:42;102133.13;;;19.80;100.00
12801;BME280;6464;42.494;27.470;2022-09-04T20:35:17;102176.06;;;20.03;100.00
12801;BME280;6464;42.494;27.470;2022-09-04T20:37:54;102107.84;;;19.63;100.00
12801;BME280;6464;42.494;27.470;2022-09-04T20:40:49;102073.78;;;19.40;100.00
12801;BME280;6464;42.494;27.470;2022-09-04T20:44:03;101989.78;;;18.93;100.00
12801;BME280;6464;42.494;27.470;2022-09-04T20:49:20;102086.78;;;19.51;100.00
12801;BME280;6464;42.494;27.470;2022-09-04T21:13:43;102163.69;;;19.72;100.00
12801;BME280;6464;42.494;27.470;2022-09-04T21:16:41;102168.16;;;19.73;100.00
12801;BME280;6464;42.494;27.470;2022-09-04T21:26:28;101942.22;;;18.48;100.00
12801;BME280;6464;42.494;27.470;2022-09-04T21:47:03;102127.13;;;19.45;100.00
12801;BME280;6464;42.494;27.470;2022-09-04T22:26:36;102104.53;;;18.99;100.00
12801;BME280;6464;42.494;27.470;2022-09-04T22:30:43;102102.88;;;18.95;100.00
12801;BME280;6464;42.494;27.470;2022-09-04T22:57:36;102014.78;;;18.34;100.00
12801;BME280;6464;42.494;27.470;2022-09-04T23:00:56;102095.47;;;18.75;100.00
12801;BME280;6464;42.494;27.470;2022-09-04T23:04:43;101937.81;;;17.88;100.00
12801;BME280;6464;42.494;27.470;2022-09-04T23:34:38;102018.50;;;18.29;100.00
12801;BME280;6464;42.494;27.470;2022-09-04T23:35:28;101932.81;;;17.77;100.00
12801;BME280;6464;42.494;27.470;2022-09-04T23:48:55;101948.47;;;17.89;100.00
12801;BME280;6464;42.494;27.470;2022-09-04T23:59:06;102093.81;;;18.71;100.00
